Create Custom Reports and Graphics: Custom Report

North/Central Map

Map

15 Minute Data

South County Map

Map

15 Minute Data

Northern Sonoma County Latest

13 Stations

15 Minute Data | America/Los_Angeles
as of 9/23/20 11:39 AM PDT
Station Date Time Temp (°F) RH (%) Dew Pt (°F) Wind Spd (mph) Wind Dir (°) Wind Gust (mph) Latest Rain (In) Daily Rain (In) Daily Min Temp (°F) Daily Max Temp (°F)
Rockpile Upper (Cooley) 9/23/20 1130 75.4   2.3 40   4 49.8   4.6 2.2 NW | 308 7.0   1.3 0.00 0.00 55.2   2.1 77.3   3.6
Rockpile Lower (Cooley) 9/23/20 1115 76.3   1.9 39   6 49.5   6.4 4.0 WSW | 254 9.1   0.7 0.00 0.00 58.5   4.5 78.0   3.1
Cloverdale-East (Ranch 83) 9/23/20 1130 80.6   1.5 31   0 47.5   0.9 5.3 N | 6 11.6   4.5 0.00 0.00 56.0   2.2 81.0   1.0
Cloverdale-SE (Ranch 38) 9/23/20 1130 79.2   2.7 34   4 48.1   0.8 4.4 N | 356 10.3   2.4 0.00 0.00 59.2   3.4 80.3   1.2
Geyserville-North (Hoffman) 9/23/20 1130 80.0   3.8 34   9 49.1   3.2 2.5 NNW | 329 5.8   0.1 0.00 0.00 46.2   0.3 80.6   3.0
Geyserville (Ranch 3) 9/23/20 1130 80.9   2.2 31   8 47.6   3.9 1.9 NNW | 339 6.4   1.2 0.00 0.00 48.2   0.6 82.5   2.9
Geyserville-East (Ranch 40) 9/23/20 1130 82.3   4.4 30   12 47.8   4.9 1.9 WNW | 292 5.6   3.4 0.00 0.00 55.6   0.8 83.5   4.4
Geyserville-South (Nervo Station) 9/23/20 1130 81.1   4.2 31   14 47.6   6.2 2.5 SE | 142 6.1   1.0 0.00 0.00 52.8   0.2 82.0   4.6
Lytton (River Oaks) 9/23/20 1130 80.0   3.9 32   13 47.7   5.4 2.6 SW | 220 5.2   1.6 0.00 0.00 44.3   0.2 81.0   3.6
Jimtown-North (Piccolo-R15) 9/23/20 1130 76.7   2.5 31   13 43.5   7.3 2.5 S | 175 7.0   1.5 0.00 0.00 44.9   0.1 78.0   3.1
Jimtown-NE (Red Fan) 9/23/20 1130 78.9   2.0 31   13 46.0   7.3 2.5 E | 93 5.4   1.2 0.00 0.00 47.3   0.4 79.9   2.0
HWY 128/Chalk Hill Rd (Landslide) 9/23/20 1130 78.5   2.7 32   13 46.0   6.7 4.4 WSW | 243 10.5   3.6 0.00 0.00 45.4   0.1 79.4   3.1
Lower Dry Creek Valley 9/23/20 1130 76.2   2.1 38   12 48.9   5.4 4.9 SE | 143 8.6   1.2 0.00 0.00 46.8   0.3 76.8   2.4
Max     82.3 40 49.8 5.3 - 11.6 0.00 0.00 59.2 83.5
Avg     78.9 33 47.6 3.2 - 7.6 0.00 - - -
Min     75.4 30 43.5 1.9 - 5.2 0.00 0.00 44.3 76.8

Central Sonoma County Latest

26 Stations

15 Minute Data | America/Los_Angeles
as of 9/23/20 11:39 AM PDT
Station Date Time Temp (°F) RH (%) Dew Pt (°F) Wind Spd (mph) Wind Dir (°) Wind Gust (mph) Latest Rain (In) Daily Rain (In) Daily Min Temp (°F) Daily Max Temp (°F)
Healdsburg-South (Sodini) 9/23/20 1130 78.0   2.8 34   13 47.1   6.0 3.7 SSW | 196 6.8   0.7 0.00 0.00 47.6   0.3 78.6   2.6
Windsor-NW (Ranch 8) 9/23/20 1130 77.8   3.4 37   17 49.7   6.9 2.3 SSE | 150 6.2   1.1 0.00 0.00 50.7   1.1 79.6   3.3
Windsor-East (Ranch 16) 9/23/20 1130 77.2   3.8 33   16 46.2   7.3 2.8 SSW | 200 6.8   0.3 0.00 0.00 46.2   0.4 77.8   4.0
Mark West-North (Ranch 14) 9/23/20 1130 76.0   2.8 35   15 46.2   6.8 2.3 SSW | 205 5.3   1.1 0.00 0.00 47.7   0.5 77.0   2.9
Windsor-SE (Silk Rd) 9/23/20 1130 75.8   1.5 38   12 48.3   6.0 2.2 SE | 141 5.3   3.2 0.00 0.00 45.0   0.0 76.8   2.1
Fulton-NW (Ranch 5) 9/23/20 1130 75.3   1.6 38   13 47.9   6.4 3.1 S | 191 7.5   0.8 0.00 0.00 46.5   0.0 76.6   2.2
Windsor-South (Laughlin Rd) 9/23/20 1130 77.0   2.5 - - - - - 0.00 0.00 48.0   0.2 78.0   2.7
Fulton-SE (Barnes Rd) 9/23/20 1130 75.2   3.7 37   16 47.0   6.5 3.0 SW | 214 5.3   2.8 0.00 0.00 47.6   0.5 76.0   3.6
Fulton-SW (Ranch 21) 9/23/20 1130 76.8   2.5 36   11 47.9   5.1 2.1 SW | 222 5.5   1.2 0.00 0.00 46.9   0.7 77.4   2.4
Santa Rosa-NW (Goldfields) 9/23/20 1130 77.1   3.4 36   12 48.3   4.4 2.0 WSW | 241 5.9   1.4 0.00 0.00 47.8   0.0 78.5   3.8
NW Santa Rosa (Piner Road) 9/23/20 1130 74.1   1.8 42   8 49.8   3.2 1.5 S | 172 4.3   1.0 0.00 0.00 44.6   0.4 75.5   2.8
River Rd South (Denner Ranch) 9/23/20 1130 75.4   2.0 40   10 49.3   4.4 3.3 S | 175 8.1   1.5 0.00 0.00 45.6   0.5 76.3   2.3
West Santa Rosa (Hawk's Roost) 9/23/20 1130 75.7   1.4 40   9 49.5   4.2 1.7 S | 173 5.2   0.9 0.00 0.00 46.3   0.5 76.2   0.9
Guerneville Rd West (Balletto) 9/23/20 1130 75.0   1.2 43   9 50.9   4.3 2.4 S | 182 5.7   2.1 0.00 0.00 44.2   0.5 75.8   1.4
Guerneville Rd East (Rich Ranch) 9/23/20 1130 77.5   1.9 37   8 49.5   3.4 - - - - - 44.6   1.2 78.4   2.2
Occidental Rd (Sebastopol) 9/23/20 1130 76.6   1.7 37   10 48.8   5.2 1.9 SSE | 157 5.0   4.2 0.00 0.00 44.5   0.0 78.4   2.6
Lower Westside Rd (Ranch 12) 9/23/20 1130 76.8   1.4 39   11 49.8   5.4 2.5 SE | 144 6.8   1.5 0.00 0.00 45.8   0.3 77.3   1.4
Guerneville (Laughlin Rd) 9/23/20 1130 80.6   1.8 35   3 50.3   0.8 4.4 SSE | 158 9.2   2.4 0.00 0.00 43.7   0.2 81.4   1.8
Korbel (Winery) 9/23/20 1130 80.2   2.4 34   7 49.4   3.2 1.9 E | 96 4.4   1.5 0.00 0.00 47.2   0.1 80.5   1.9
Forestville (Shone Farms) 9/23/20 1130 75.7   2.1 41   12 50.6   5.2 2.2 ESE | 121 5.3   2.0 0.00 0.00 47.2   1.3 77.4   2.3
Forestville-NE (Ranch 30) 9/23/20 1130 77.3   1.0 41   10 52.0   5.0 2.5 S | 191 5.9   3.1 0.00 0.00 47.1   0.8 78.6   0.4
Graton-West (Dutton Ranch) 9/23/20 1130 78.2   1.7 39   8 51.2   3.3 2.4 E | 90 6.3   0.7 0.00 0.00 44.8   0.6 79.7   2.3
Graton-South (Mill Station Rd) 9/23/20 1130 75.6   2.0 43   11 51.4   4.2 2.6 ESE | 122 5.8   0.1 0.00 0.00 42.0   0.5 76.5   2.3
Sexton Valley (Jacqueline's Blk) 9/23/20 1130 76.6   2.6 42   11 51.7   3.9 3.5 WNW | 290 7.9   1.5 0.00 0.00 44.9   1.4 77.4   1.9
Sebastopol Hills (Burnside Rd) 9/23/20 1130 74.4   4.0 44   13 51.1   3.4 2.8 WSW | 240 5.5   2.1 0.00 0.00 52.1   0.7 75.3   4.0
Seaview/Fort Ross (Hirsch) 9/23/20 1130 72.1   0.7 44   12 49.3   8.1 4.7 N | 352 7.0   0.3 0.00 0.00 57.9   2.6 73.1   0.8
Max     80.6 44 52.0 4.7 - 9.2 0.00 0.00 57.9 81.4
Avg     76.5 39 49.3 2.6 - 6.1 0.00 - - -
Min     72.1 33 46.2 1.5 - 4.3 0.00 0.00 42.0 73.1

Southern Sonoma County Latest

14 Stations

15 Minute Data | America/Los_Angeles
as of 9/23/20 11:39 AM PDT
Station Date Time Temp (°F) RH (%) Dew Pt (°F) Wind Spd (mph) Wind Dir (°) Wind Gust (mph) Latest Rain (In) Daily Rain (In) Daily Min Temp (°F) Daily Max Temp (°F)
Lower Bennett Valley 9/23/20 1130 77.7   3.0 30   14 44.2   7.1 4.5 N | 4 9.4   2.2 0.00 0.00 43.2   0.3 78.1   3.0
Kenwood (Kunde) 9/23/20 1130 80.0   3.6 30   8 45.8   2.9 0.9 NNW | 334 11.4   1.8 0.00 0.00 43.8   0.9 80.8   3.9
Sonoma Valley (Bedrock) 9/23/20 1130 77.5   2.6 30   13 43.8   7.5 2.0 SSE | 158 5.1   1.0 0.00 0.00 45.3   0.2 78.1   2.5
Sonoma-West (Arnold) 9/23/20 1130 78.9   2.8 34   12 48.3   5.7 4.0 SSE | 158 7.6   1.7 0.00 0.00 45.3   0.1 80.0   3.2
Schellville 9/23/20 1130 79.1   2.7 32   12 47.1   5.9 2.6 SW | 232 6.4   1.7 0.00 0.00 46.4   1.5 79.6   2.0
Sonoma-SE (Napoli) 9/23/20 1130 78.9   3.0 31   14 45.5   7.6 3.9 WSW | 240 7.8   1.3 0.00 0.00 45.2   2.3 79.4   2.8
Carneros (Ranch 71) 9/23/20 1130 75.6   3.0 37   16 47.4   7.2 3.1 SW | 233 8.7   0.3 0.00 0.00 55.0   0.2 76.6   3.1
Carneros Upper (Ranch 81) 9/23/20 1130 75.9   2.9 34   17 45.8   8.1 4.9 WSW | 237 8.6   3.5 - - 56.8   3.7 76.5   2.1
Carneros Lower (Ranch 81) 9/23/20 1130 76.9   1.7 36   15 48.0   8.2 2.2 SSW | 202 7.4   0.3 0.00 0.00 47.2   0.0 77.6   2.1
Rohnert Park-West (Stony Point) 9/20/20 1315 88.1   6.1 34   8 55.9   0.2 4.1 W | 275 8.6   3.5 0.00 0.00 45.5   1.9 89.0   5.9
Penngrove (Asellus) 9/23/20 1130 76.8   1.9 36   12 47.9   6.0 3.2 WSW | 237 5.8   0.3 0.00 0.00 44.3   1.8 77.7   2.3
Roger's Creek (Ranch 50) 9/23/20 1130 72.2   1.3 40   14 46.8   6.6 5.1 WSW | 239 9.2   1.8 0.00 0.00 54.9   1.0 72.6   0.4
Petaluma (Ranch 10) 9/23/20 1130 77.7   1.7 36   11 48.4   5.4 4.7 W | 261 9.7   2.6 0.00 0.00 45.4   0.2 78.1   1.3
Lakeville (Ranch 47) 9/23/20 1130 76.1   3.6 40   20 49.9   7.7 3.9 SW | 215 7.2   3.9 0.00 0.00 48.0   0.5 76.5   2.7
Max     80.0 40 49.9 5.1 - 11.4 0.00 0.00 56.8 80.8
Avg     77.2 34 46.8 3.5 - 8.0 0.00 - - -
Min     72.2 30 43.8 0.9 - 5.1 0.00 0.00 43.2 72.6

Air Quality (Current)

Map

15 Minute Data